Aérodrome :
LOGIN :

S'inscrire | Disclaimer

   EN    FR    IT 

 










Légende :    VFR   VFR Marginal   IFR   IFR Intensif   IFR Très Intensif
Visi : 
Plafond : 
>= 8 km
>= 3000ft
5 à 8 km
1000 à 3000 ft
1500m à 5 km
500 à 1000 ft
800 à 1500m
200 à 500 ft
< 800m
< 200 ft
Symboles :   Orages  Brouillard  Fortes neiges  Fortes précipitations  Vent > 20 kt
SIGMETs :   Divers  Orages  Givrage  Turbulence  Onde Orograph.  Cendres Volcan.







- Altitude de l'aérodrome : 160 ft
- Code IATA : LRT
- Voir les cartes d'approche


LFRH - Lorient Lann Bihoue

DERNIER METAR :
  • 280300Z AUTO 26017KT 9999 RA FEW013/// BKN025/// OVC032/// ///TCU 05/03 Q0993 TEMPO 26035G50KT 3000 SHRAGS BKN030CB

METARs EXPIRÉS :
  • 280230Z AUTO 24024KT 4800 RA BR FEW021/// BKN026/// BKN038/// ///TCU 06/04 Q0993 TEMPO 26035G50KT TSRAGR BKN030CB
  • 280200Z AUTO 23019KT 9999 SCT036/// BKN044/// BKN064/// ///TCU 07/03 Q0994 TEMPO 26035G50KT 3000 SHRAGS BKN030CB
  • 280130Z AUTO 26015KT 9999 FEW031 SCT056 BKN150 07/03 Q0995 TEMPO 26035G50KT 3000 SHRAGS BKN030CB
  • 280100Z AUTO 25017G27KT 9999 FEW023 BKN030 BKN042 ///// Q0995 TEMPO 26035G50KT 3000 SHRAGS BKN030CB
  • 280030Z AUTO 26018KT CAVOK 07/03 Q0996 TEMPO 26035G50KT 3000 SHRAGS BKN030CB

TAF TAF LFRH
Valide du 28 à 00h jusqu'au 01 à 00h UTC


272300Z 2800/2824 27015G25KT 9999 BKN035 BKN040
TEMPO 2800/2806 26035G50KT 3000 SHRAGS FEW010 BKN035TCU
PROB40
TEMPO 2800/2806 TSRAGR BKN030CB
BECMG 2806/2808 30015G30KT
BECMG 2810/2812 BKN030TCU
TEMPO 2818/2824 27020G40KT 5000 SHRAGS BKN040TCU
Pas de NOTAMs connus pour ce terrain.
2 SIGMETs publiés pour la FIR Brest (LFRR) :
 
Turbulence forte
LFRR SIGMET 11 VALID 280000/280400 LFPW
LFRR BREST FIR/UIR SEV TURB FCST WI N4630 W00100 - N4630 W00130 - N4330 W00145 - N4500 W00800 - N4900 W00800 - N5000 W00200 - N5000 W00015 - N4915 W00015 - N4815 W00230 SFC/FL060 STNR NC=
Orages noyés dans la masse
LFRR SIGMET 1 VALID 280300/280500 LFPW
LFRR BREST FIR/UIR EMBD TS OBS WI N4700 W00800 - N4900 W00800 - N5000 W00200 - N5000 W00030 - N4600 W00245 TOP FL270 MOV E 15KT NC=



MET'MAP, la Météo Aéronautique d'un coup d'oeil ! - Copyright ORBIFLY Décembre 2007 - Disclaimer

ORBIFLY MET'MAP TEAM :

Programmation & Développement : Alexandra Zaïnal
Conception & Développement : Baudouin d'Aumeries
Co-Programmation & Développement : Marc-Olivier Méhu
Soutien technique & logistique : Manuel Goepfert

Contact : metmap@orbifly.com




SOURCES & CREDITS :

   NOAA